sensor_id;sensor_type;location;lat;lon;timestamp;temperature;humidity
12520;DHT22;6325;49.540;8.364;2023-02-28T00:00:29;1.00;99.90
12520;DHT22;6325;49.540;8.364;2023-02-28T00:02:57;1.40;99.90
12520;DHT22;6325;49.540;8.364;2023-02-28T00:05:25;1.30;99.90
12520;DHT22;6325;49.540;8.364;2023-02-28T00:07:53;1.00;99.90
12520;DHT22;6325;49.540;8.364;2023-02-28T00:10:22;1.20;99.90
12520;DHT22;6325;49.540;8.364;2023-02-28T00:12:50;1.10;99.90
12520;DHT22;6325;49.540;8.364;2023-02-28T00:15:19;1.60;99.90
12520;DHT22;6325;49.540;8.364;2023-02-28T00:17:46;1.20;99.90
12520;DHT22;6325;49.540;8.364;2023-02-28T00:20:13;1.20;99.90
12520;DHT22;6325;49.540;8.364;2023-02-28T00:22:42;1.20;99.90
12520;DHT22;6325;49.540;8.364;2023-02-28T00:25:11;1.50;99.90
12520;DHT22;6325;49.540;8.364;2023-02-28T00:27:39;1.20;99.90
12520;DHT22;6325;49.540;8.364;2023-02-28T00:30:10;1.10;99.90
12520;DHT22;6325;49.540;8.364;2023-02-28T00:32:38;1.60;99.90
12520;DHT22;6325;49.540;8.364;2023-02-28T00:35:07;1.50;99.90
12520;DHT22;6325;49.540;8.364;2023-02-28T00:37:34;1.60;99.90
12520;DHT22;6325;49.540;8.364;2023-02-28T00:40:02;1.70;99.90
12520;DHT22;6325;49.540;8.364;2023-02-28T00:42:30;1.40;99.90
12520;DHT22;6325;49.540;8.364;2023-02-28T00:44:56;0.90;99.90
12520;DHT22;6325;49.540;8.364;2023-02-28T00:47:23;1.40;99.90
12520;DHT22;6325;49.540;8.364;2023-02-28T00:49:52;0.90;99.90
12520;DHT22;6325;49.540;8.364;2023-02-28T00:52:19;1.70;99.90
12520;DHT22;6325;49.540;8.364;2023-02-28T00:54:45;1.50;99.90
12520;DHT22;6325;49.540;8.364;2023-02-28T00:57:12;1.30;99.90
12520;DHT22;6325;49.540;8.364;2023-02-28T00:59:39;1.30;99.90
12520;DHT22;6325;49.540;8.364;2023-02-28T01:02:07;1.10;99.90
12520;DHT22;6325;49.540;8.364;2023-02-28T01:04:34;0.50;99.90
12520;DHT22;6325;49.540;8.364;2023-02-28T01:07:02;1.10;99.90
12520;DHT22;6325;49.540;8.364;2023-02-28T01:09:30;1.00;99.90
12520;DHT22;6325;49.540;8.364;2023-02-28T01:11:56;0.80;99.90
12520;DHT22;6325;49.540;8.364;2023-02-28T01:14:23;0.80;99.90
12520;DHT22;6325;49.540;8.364;2023-02-28T01:16:51;1.10;99.90
12520;DHT22;6325;49.540;8.364;2023-02-28T01:19:18;1.10;99.90
12520;DHT22;6325;49.540;8.364;2023-02-28T01:21:45;0.80;99.90
12520;DHT22;6325;49.540;8.364;2023-02-28T01:24:13;0.90;99.90
12520;DHT22;6325;49.540;8.364;2023-02-28T01:26:40;-0.10;99.90
12520;DHT22;6325;49.540;8.364;2023-02-28T01:29:07;1.10;99.90
12520;DHT22;6325;49.540;8.364;2023-02-28T01:31:35;0.90;99.90
12520;DHT22;6325;49.540;8.364;2023-02-28T01:34:01;0.70;99.90
12520;DHT22;6325;49.540;8.364;2023-02-28T01:36:29;0.80;99.90
12520;DHT22;6325;49.540;8.364;2023-02-28T01:38:56;0.80;99.90
12520;DHT22;6325;49.540;8.364;2023-02-28T01:41:26;0.60;99.90
12520;DHT22;6325;49.540;8.364;2023-02-28T01:44:01;0.70;99.90
12520;DHT22;6325;49.540;8.364;2023-02-28T01:46:32;0.70;99.90
12520;DHT22;6325;49.540;8.364;2023-02-28T01:49:04;0.40;99.90
12520;DHT22;6325;49.540;8.364;2023-02-28T01:51:37;0.40;99.90
12520;DHT22;6325;49.540;8.364;2023-02-28T01:54:08;0.90;99.90
12520;DHT22;6325;49.540;8.364;2023-02-28T01:56:44;0.70;99.90
12520;DHT22;6325;49.540;8.364;2023-02-28T01:59:14;0.20;99.90
12520;DHT22;6325;49.540;8.364;2023-02-28T02:01:43;0.20;99.90
12520;DHT22;6325;49.540;8.364;2023-02-28T02:04:10;0.30;99.90
12520;DHT22;6325;49.540;8.364;2023-02-28T02:06:40;0.40;99.90
12520;DHT22;6325;49.540;8.364;2023-02-28T02:09:08;0.50;99.90
12520;DHT22;6325;49.540;8.364;2023-02-28T02:11:36;0.10;99.90
12520;DHT22;6325;49.540;8.364;2023-02-28T02:17:19;0.60;99.90
12520;DHT22;6325;49.540;8.364;2023-02-28T02:25:52;0.00;99.90
12520;DHT22;6325;49.540;8.364;2023-02-28T02:28:46;0.50;99.90
12520;DHT22;6325;49.540;8.364;2023-02-28T02:31:33;-0.40;99.90
12520;DHT22;6325;49.540;8.364;2023-02-28T02:34:28;-0.30;99.90
12520;DHT22;6325;49.540;8.364;2023-02-28T02:37:03;-0.70;99.90
12520;DHT22;6325;49.540;8.364;2023-02-28T02:39:38;-0.10;99.90
12520;DHT22;6325;49.540;8.364;2023-02-28T02:42:14;-0.30;99.90
12520;DHT22;6325;49.540;8.364;2023-02-28T02:44:47;-0.60;99.90
12520;DHT22;6325;49.540;8.364;2023-02-28T02:47:16;0.20;99.90
12520;DHT22;6325;49.540;8.364;2023-02-28T02:49:48;0.40;99.90
12520;DHT22;6325;49.540;8.364;2023-02-28T02:52:20;-0.30;99.90
12520;DHT22;6325;49.540;8.364;2023-02-28T02:54:49;0.30;99.90
12520;DHT22;6325;49.540;8.364;2023-02-28T02:57:22;0.10;99.90
12520;DHT22;6325;49.540;8.364;2023-02-28T02:59:51;0.30;99.90
12520;DHT22;6325;49.540;8.364;2023-02-28T03:02:21;-0.20;99.90
12520;DHT22;6325;49.540;8.364;2023-02-28T03:04:52;-0.40;99.90
12520;DHT22;6325;49.540;8.364;2023-02-28T03:07:20;-0.60;99.90
12520;DHT22;6325;49.540;8.364;2023-02-28T03:09:51;-0.60;99.90
12520;DHT22;6325;49.540;8.364;2023-02-28T03:12:19;-1.00;99.90
12520;DHT22;6325;49.540;8.364;2023-02-28T03:14:55;0.30;99.90
12520;DHT22;6325;49.540;8.364;2023-02-28T03:17:44;-0.20;99.90
12520;DHT22;6325;49.540;8.364;2023-02-28T03:20:27;-0.30;99.90
12520;DHT22;6325;49.540;8.364;2023-02-28T03:23:03;-0.20;99.90
12520;DHT22;6325;49.540;8.364;2023-02-28T03:25:39;0.10;99.90
12520;DHT22;6325;49.540;8.364;2023-02-28T03:28:15;-0.20;99.90
12520;DHT22;6325;49.540;8.364;2023-02-28T03:30:47;-0.70;99.90
12520;DHT22;6325;49.540;8.364;2023-02-28T03:33:20;-0.50;99.90
12520;DHT22;6325;49.540;8.364;2023-02-28T03:35:52;-0.20;99.90
12520;DHT22;6325;49.540;8.364;2023-02-28T03:38:24;0.00;99.90
12520;DHT22;6325;49.540;8.364;2023-02-28T03:40:58;-0.90;99.90
12520;DHT22;6325;49.540;8.364;2023-02-28T03:43:36;-0.30;99.90
12520;DHT22;6325;49.540;8.364;2023-02-28T03:46:08;-0.50;99.90
12520;DHT22;6325;49.540;8.364;2023-02-28T03:48:39;-0.30;99.90
12520;DHT22;6325;49.540;8.364;2023-02-28T03:51:10;-0.20;99.90
12520;DHT22;6325;49.540;8.364;2023-02-28T03:53:41;-0.50;99.90
12520;DHT22;6325;49.540;8.364;2023-02-28T03:56:15;-0.20;99.90
12520;DHT22;6325;49.540;8.364;2023-02-28T03:58:48;-0.30;99.90
12520;DHT22;6325;49.540;8.364;2023-02-28T04:01:21;0.10;99.90
12520;DHT22;6325;49.540;8.364;2023-02-28T04:03:50;-0.60;99.90
12520;DHT22;6325;49.540;8.364;2023-02-28T04:06:20;-1.00;99.90
12520;DHT22;6325;49.540;8.364;2023-02-28T04:08:48;-0.20;99.90
12520;DHT22;6325;49.540;8.364;2023-02-28T04:11:20;-0.20;99.90
12520;DHT22;6325;49.540;8.364;2023-02-28T04:13:48;-0.30;99.90
12520;DHT22;6325;49.540;8.364;2023-02-28T04:16:15;0.00;99.90
12520;DHT22;6325;49.540;8.364;2023-02-28T04:18:42;-0.50;99.90
12520;DHT22;6325;49.540;8.364;2023-02-28T04:21:09;-0.80;99.90
12520;DHT22;6325;49.540;8.364;2023-02-28T04:23:38;-0.20;99.90
12520;DHT22;6325;49.540;8.364;2023-02-28T04:26:05;-0.40;99.90
12520;DHT22;6325;49.540;8.364;2023-02-28T04:28:33;-0.50;99.90
12520;DHT22;6325;49.540;8.364;2023-02-28T04:31:02;-0.70;99.90
12520;DHT22;6325;49.540;8.364;2023-02-28T04:33:31;-0.20;99.90
12520;DHT22;6325;49.540;8.364;2023-02-28T04:35:59;0.00;99.90
12520;DHT22;6325;49.540;8.364;2023-02-28T04:38:29;-0.60;99.90
12520;DHT22;6325;49.540;8.364;2023-02-28T04:40:58;-0.20;99.90
12520;DHT22;6325;49.540;8.364;2023-02-28T04:43:26;-0.70;99.90
12520;DHT22;6325;49.540;8.364;2023-02-28T04:45:53;-0.90;99.90
12520;DHT22;6325;49.540;8.364;2023-02-28T04:48:22;-0.30;99.90
12520;DHT22;6325;49.540;8.364;2023-02-28T04:50:49;-0.10;99.90
12520;DHT22;6325;49.540;8.364;2023-02-28T04:53:16;-0.60;99.90
12520;DHT22;6325;49.540;8.364;2023-02-28T04:55:43;-0.90;99.90
12520;DHT22;6325;49.540;8.364;2023-02-28T04:58:11;-0.70;99.90
12520;DHT22;6325;49.540;8.364;2023-02-28T05:00:38;-0.20;99.90
12520;DHT22;6325;49.540;8.364;2023-02-28T05:03:05;-0.50;99.90
12520;DHT22;6325;49.540;8.364;2023-02-28T05:05:33;-0.60;99.90
12520;DHT22;6325;49.540;8.364;2023-02-28T05:07:59;-0.90;99.90
12520;DHT22;6325;49.540;8.364;2023-02-28T05:10:26;-0.30;99.90
12520;DHT22;6325;49.540;8.364;2023-02-28T05:12:53;-1.00;99.90
12520;DHT22;6325;49.540;8.364;2023-02-28T05:15:22;-0.20;99.90
12520;DHT22;6325;49.540;8.364;2023-02-28T05:17:49;-0.80;99.90
12520;DHT22;6325;49.540;8.364;2023-02-28T05:20:16;-1.00;99.90
12520;DHT22;6325;49.540;8.364;2023-02-28T05:22:43;-0.50;99.90
12520;DHT22;6325;49.540;8.364;2023-02-28T05:25:13;-0.50;99.90
12520;DHT22;6325;49.540;8.364;2023-02-28T05:27:40;-0.50;99.90
12520;DHT22;6325;49.540;8.364;2023-02-28T05:30:08;-0.20;99.90
12520;DHT22;6325;49.540;8.364;2023-02-28T05:32:38;-0.20;99.90
12520;DHT22;6325;49.540;8.364;2023-02-28T05:35:09;-0.50;99.90
12520;DHT22;6325;49.540;8.364;2023-02-28T05:37:37;-1.00;99.90
12520;DHT22;6325;49.540;8.364;2023-02-28T05:40:06;-0.40;99.90
12520;DHT22;6325;49.540;8.364;2023-02-28T05:42:35;-0.60;99.90
12520;DHT22;6325;49.540;8.364;2023-02-28T05:45:03;-0.20;99.90
12520;DHT22;6325;49.540;8.364;2023-02-28T05:47:30;-0.60;99.90
12520;DHT22;6325;49.540;8.364;2023-02-28T05:49:58;-0.30;99.90
12520;DHT22;6325;49.540;8.364;2023-02-28T05:52:25;-0.60;99.90
12520;DHT22;6325;49.540;8.364;2023-02-28T05:54:52;0.00;99.90
12520;DHT22;6325;49.540;8.364;2023-02-28T05:57:19;-0.10;99.90
12520;DHT22;6325;49.540;8.364;2023-02-28T05:59:46;0.00;99.90
12520;DHT22;6325;49.540;8.364;2023-02-28T06:02:15;-0.80;99.90
12520;DHT22;6325;49.540;8.364;2023-02-28T06:04:43;-0.10;99.90
12520;DHT22;6325;49.540;8.364;2023-02-28T06:07:12;0.30;99.90
12520;DHT22;6325;49.540;8.364;2023-02-28T06:09:39;0.00;99.90
12520;DHT22;6325;49.540;8.364;2023-02-28T06:12:11;-0.40;99.90
12520;DHT22;6325;49.540;8.364;2023-02-28T06:14:38;-0.10;99.90
12520;DHT22;6325;49.540;8.364;2023-02-28T06:17:06;-0.30;99.90
12520;DHT22;6325;49.540;8.364;2023-02-28T06:19:33;-0.70;99.90
12520;DHT22;6325;49.540;8.364;2023-02-28T06:22:00;-0.10;99.90
12520;DHT22;6325;49.540;8.364;2023-02-28T06:24:28;-0.20;99.90
12520;DHT22;6325;49.540;8.364;2023-02-28T06:26:57;-0.20;99.90
12520;DHT22;6325;49.540;8.364;2023-02-28T06:29:30;-0.50;99.90
12520;DHT22;6325;49.540;8.364;2023-02-28T06:31:57;-0.20;99.90
12520;DHT22;6325;49.540;8.364;2023-02-28T06:34:24;-0.40;99.90
12520;DHT22;6325;49.540;8.364;2023-02-28T06:36:52;0.00;99.90
12520;DHT22;6325;49.540;8.364;2023-02-28T06:39:19;-0.20;99.90
12520;DHT22;6325;49.540;8.364;2023-02-28T06:41:47;0.40;99.90
12520;DHT22;6325;49.540;8.364;2023-02-28T06:44:18;-0.30;99.90
12520;DHT22;6325;49.540;8.364;2023-02-28T06:46:46;0.10;99.90
12520;DHT22;6325;49.540;8.364;2023-02-28T06:49:13;-0.10;99.90
12520;DHT22;6325;49.540;8.364;2023-02-28T06:51:42;-0.50;99.90
12520;DHT22;6325;49.540;8.364;2023-02-28T06:54:13;-0.20;99.90
12520;DHT22;6325;49.540;8.364;2023-02-28T06:56:42;0.20;99.90
12520;DHT22;6325;49.540;8.364;2023-02-28T06:59:11;0.40;99.90
12520;DHT22;6325;49.540;8.364;2023-02-28T07:01:37;-0.10;99.90
12520;DHT22;6325;49.540;8.364;2023-02-28T07:04:05;0.40;99.90
12520;DHT22;6325;49.540;8.364;2023-02-28T07:06:32;-0.40;99.90
12520;DHT22;6325;49.540;8.364;2023-02-28T07:08:59;0.30;99.90
12520;DHT22;6325;49.540;8.364;2023-02-28T07:11:27;0.20;99.90
12520;DHT22;6325;49.540;8.364;2023-02-28T07:13:55;0.50;99.90
12520;DHT22;6325;49.540;8.364;2023-02-28T07:16:25;0.50;99.90
12520;DHT22;6325;49.540;8.364;2023-02-28T07:18:52;0.50;99.90
12520;DHT22;6325;49.540;8.364;2023-02-28T07:21:20;-0.10;99.90
12520;DHT22;6325;49.540;8.364;2023-02-28T07:23:47;0.60;99.90
12520;DHT22;6325;49.540;8.364;2023-02-28T07:26:16;0.20;99.90
12520;DHT22;6325;49.540;8.364;2023-02-28T07:28:44;0.80;99.90
12520;DHT22;6325;49.540;8.364;2023-02-28T07:31:12;0.10;99.90
12520;DHT22;6325;49.540;8.364;2023-02-28T07:33:42;0.90;99.90
12520;DHT22;6325;49.540;8.364;2023-02-28T07:36:11;0.40;99.90
12520;DHT22;6325;49.540;8.364;2023-02-28T07:38:41;0.70;99.90
12520;DHT22;6325;49.540;8.364;2023-02-28T07:41:08;0.20;99.90
12520;DHT22;6325;49.540;8.364;2023-02-28T07:43:35;0.50;99.90
12520;DHT22;6325;49.540;8.364;2023-02-28T07:46:03;1.10;99.90
12520;DHT22;6325;49.540;8.364;2023-02-28T07:48:33;1.10;99.90
12520;DHT22;6325;49.540;8.364;2023-02-28T07:51:02;0.80;99.90
12520;DHT22;6325;49.540;8.364;2023-02-28T07:53:29;1.30;99.90
12520;DHT22;6325;49.540;8.364;2023-02-28T07:55:56;0.60;99.90
12520;DHT22;6325;49.540;8.364;2023-02-28T07:58:24;1.30;99.90
12520;DHT22;6325;49.540;8.364;2023-02-28T08:00:51;1.40;99.90
12520;DHT22;6325;49.540;8.364;2023-02-28T08:03:19;1.80;99.90
12520;DHT22;6325;49.540;8.364;2023-02-28T08:05:46;2.00;99.90
12520;DHT22;6325;49.540;8.364;2023-02-28T08:08:15;1.50;99.90
12520;DHT22;6325;49.540;8.364;2023-02-28T08:10:42;2.10;99.90
12520;DHT22;6325;49.540;8.364;2023-02-28T08:13:09;2.20;99.90
12520;DHT22;6325;49.540;8.364;2023-02-28T08:15:36;2.50;99.90
12520;DHT22;6325;49.540;8.364;2023-02-28T08:18:03;2.10;99.90
12520;DHT22;6325;49.540;8.364;2023-02-28T08:20:30;2.30;99.90
12520;DHT22;6325;49.540;8.364;2023-02-28T08:22:57;2.40;99.90
12520;DHT22;6325;49.540;8.364;2023-02-28T08:25:25;2.80;99.90
12520;DHT22;6325;49.540;8.364;2023-02-28T08:27:52;2.40;99.90
12520;DHT22;6325;49.540;8.364;2023-02-28T08:30:21;2.70;99.90
12520;DHT22;6325;49.540;8.364;2023-02-28T08:32:48;3.20;99.90
12520;DHT22;6325;49.540;8.364;2023-02-28T08:35:15;2.90;99.90
12520;DHT22;6325;49.540;8.364;2023-02-28T08:37:42;2.90;99.90
12520;DHT22;6325;49.540;8.364;2023-02-28T08:40:10;3.00;99.90
12520;DHT22;6325;49.540;8.364;2023-02-28T08:42:40;3.00;99.90
12520;DHT22;6325;49.540;8.364;2023-02-28T08:45:07;3.40;99.90
12520;DHT22;6325;49.540;8.364;2023-02-28T08:47:34;2.70;99.90
12520;DHT22;6325;49.540;8.364;2023-02-28T08:50:02;3.10;99.90
12520;DHT22;6325;49.540;8.364;2023-02-28T08:52:29;3.00;99.90
12520;DHT22;6325;49.540;8.364;2023-02-28T08:54:56;3.70;99.90
12520;DHT22;6325;49.540;8.364;2023-02-28T08:57:23;3.10;99.90
12520;DHT22;6325;49.540;8.364;2023-02-28T08:59:53;3.20;99.90
12520;DHT22;6325;49.540;8.364;2023-02-28T09:02:19;3.20;99.90
12520;DHT22;6325;49.540;8.364;2023-02-28T09:04:46;3.10;99.90
12520;DHT22;6325;49.540;8.364;2023-02-28T09:07:13;3.30;99.90
12520;DHT22;6325;49.540;8.364;2023-02-28T09:09:40;4.20;99.90
12520;DHT22;6325;49.540;8.364;2023-02-28T09:12:19;3.80;99.90
12520;DHT22;6325;49.540;8.364;2023-02-28T09:14:46;3.00;99.90
12520;DHT22;6325;49.540;8.364;2023-02-28T09:17:14;4.10;99.90
12520;DHT22;6325;49.540;8.364;2023-02-28T09:19:41;3.70;99.90
12520;DHT22;6325;49.540;8.364;2023-02-28T09:22:08;4.10;99.90
12520;DHT22;6325;49.540;8.364;2023-02-28T09:24:36;4.00;99.90
12520;DHT22;6325;49.540;8.364;2023-02-28T09:27:04;4.40;99.90
12520;DHT22;6325;49.540;8.364;2023-02-28T09:29:31;3.80;99.90
12520;DHT22;6325;49.540;8.364;2023-02-28T09:31:59;4.50;99.90
12520;DHT22;6325;49.540;8.364;2023-02-28T09:34:28;4.80;99.90
12520;DHT22;6325;49.540;8.364;2023-02-28T09:36:56;4.50;99.90
12520;DHT22;6325;49.540;8.364;2023-02-28T09:39:23;4.40;99.90
12520;DHT22;6325;49.540;8.364;2023-02-28T09:41:53;4.90;99.90
12520;DHT22;6325;49.540;8.364;2023-02-28T09:44:25;5.00;99.90
12520;DHT22;6325;49.540;8.364;2023-02-28T09:46:57;4.40;99.90
12520;DHT22;6325;49.540;8.364;2023-02-28T09:49:35;4.90;99.90
12520;DHT22;6325;49.540;8.364;2023-02-28T09:52:07;5.40;99.90
12520;DHT22;6325;49.540;8.364;2023-02-28T09:54:36;4.60;99.90
12520;DHT22;6325;49.540;8.364;2023-02-28T09:57:07;4.60;99.90
12520;DHT22;6325;49.540;8.364;2023-02-28T09:59:59;5.20;99.90
12520;DHT22;6325;49.540;8.364;2023-02-28T10:02:43;5.30;99.90
12520;DHT22;6325;49.540;8.364;2023-02-28T10:05:14;4.90;99.90
12520;DHT22;6325;49.540;8.364;2023-02-28T10:07:54;5.00;99.90
12520;DHT22;6325;49.540;8.364;2023-02-28T10:10:27;5.00;99.90
12520;DHT22;6325;49.540;8.364;2023-02-28T10:12:57;5.40;99.90
12520;DHT22;6325;49.540;8.364;2023-02-28T10:15:29;5.70;99.90
12520;DHT22;6325;49.540;8.364;2023-02-28T10:17:59;6.00;99.90
12520;DHT22;6325;49.540;8.364;2023-02-28T10:20:28;4.90;99.90
12520;DHT22;6325;49.540;8.364;2023-02-28T10:23:01;5.80;99.90
12520;DHT22;6325;49.540;8.364;2023-02-28T10:25:33;5.60;99.90
12520;DHT22;6325;49.540;8.364;2023-02-28T10:28:05;6.20;99.90
12520;DHT22;6325;49.540;8.364;2023-02-28T10:30:35;6.30;99.90
12520;DHT22;6325;49.540;8.364;2023-02-28T10:33:03;6.00;99.90
12520;DHT22;6325;49.540;8.364;2023-02-28T10:35:31;6.50;99.90
12520;DHT22;6325;49.540;8.364;2023-02-28T10:38:00;6.40;99.90
12520;DHT22;6325;49.540;8.364;2023-02-28T10:40:35;6.40;99.90
12520;DHT22;6325;49.540;8.364;2023-02-28T10:43:04;7.10;99.90
12520;DHT22;6325;49.540;8.364;2023-02-28T10:45:32;7.10;99.30
12520;DHT22;6325;49.540;8.364;2023-02-28T10:48:03;6.20;98.10
12520;DHT22;6325;49.540;8.364;2023-02-28T10:50:36;6.50;98.30
12520;DHT22;6325;49.540;8.364;2023-02-28T10:53:28;6.90;98.90
12520;DHT22;6325;49.540;8.364;2023-02-28T10:56:00;6.70;99.40
12520;DHT22;6325;49.540;8.364;2023-02-28T10:58:29;6.90;99.20
12520;DHT22;6325;49.540;8.364;2023-02-28T11:00:57;6.80;98.50
12520;DHT22;6325;49.540;8.364;2023-02-28T11:03:30;6.90;97.80
12520;DHT22;6325;49.540;8.364;2023-02-28T11:05:59;7.40;97.50
12520;DHT22;6325;49.540;8.364;2023-02-28T11:08:30;6.90;95.90
12520;DHT22;6325;49.540;8.364;2023-02-28T11:11:00;7.00;96.60
12520;DHT22;6325;49.540;8.364;2023-02-28T11:13:31;7.10;97.30
12520;DHT22;6325;49.540;8.364;2023-02-28T11:16:02;7.00;96.40
12520;DHT22;6325;49.540;8.364;2023-02-28T11:18:36;7.10;95.60
12520;DHT22;6325;49.540;8.364;2023-02-28T11:21:08;7.80;96.40
12520;DHT22;6325;49.540;8.364;2023-02-28T11:23:37;7.20;96.30
12520;DHT22;6325;49.540;8.364;2023-02-28T11:26:07;7.40;96.10
12520;DHT22;6325;49.540;8.364;2023-02-28T11:28:38;7.90;95.10
12520;DHT22;6325;49.540;8.364;2023-02-28T11:31:16;7.50;94.50
12520;DHT22;6325;49.540;8.364;2023-02-28T11:33:45;7.10;94.70
12520;DHT22;6325;49.540;8.364;2023-02-28T11:36:18;7.50;94.80
12520;DHT22;6325;49.540;8.364;2023-02-28T11:38:45;7.70;96.00
12520;DHT22;6325;49.540;8.364;2023-02-28T11:41:28;7.30;96.90
12520;DHT22;6325;49.540;8.364;2023-02-28T11:44:15;7.80;96.00
12520;DHT22;6325;49.540;8.364;2023-02-28T11:46:49;8.10;95.10
12520;DHT22;6325;49.540;8.364;2023-02-28T11:49:29;8.50;95.80
12520;DHT22;6325;49.540;8.364;2023-02-28T11:52:01;8.20;94.10
12520;DHT22;6325;49.540;8.364;2023-02-28T11:54:43;8.20;93.10
12520;DHT22;6325;49.540;8.364;2023-02-28T11:57:24;7.30;93.70
12520;DHT22;6325;49.540;8.364;2023-02-28T12:00:00;7.70;93.40
12520;DHT22;6325;49.540;8.364;2023-02-28T12:02:33;8.30;93.00
12520;DHT22;6325;49.540;8.364;2023-02-28T12:05:17;7.90;92.50
12520;DHT22;6325;49.540;8.364;2023-02-28T12:07:54;7.50;92.70
12520;DHT22;6325;49.540;8.364;2023-02-28T12:10:26;7.40;93.60
12520;DHT22;6325;49.540;8.364;2023-02-28T12:13:06;7.30;94.20
12520;DHT22;6325;49.540;8.364;2023-02-28T12:15:52;8.10;95.90
12520;DHT22;6325;49.540;8.364;2023-02-28T12:18:40;8.10;95.20
12520;DHT22;6325;49.540;8.364;2023-02-28T12:21:16;8.70;94.60
12520;DHT22;6325;49.540;8.364;2023-02-28T12:24:00;8.80;95.20
12520;DHT22;6325;49.540;8.364;2023-02-28T12:26:36;8.90;94.00
12520;DHT22;6325;49.540;8.364;2023-02-28T12:29:16;9.20;92.70
12520;DHT22;6325;49.540;8.364;2023-02-28T12:31:49;9.00;92.00
12520;DHT22;6325;49.540;8.364;2023-02-28T12:34:20;9.70;90.30
12520;DHT22;6325;49.540;8.364;2023-02-28T12:36:49;9.50;90.30
12520;DHT22;6325;49.540;8.364;2023-02-28T12:39:25;9.90;91.10
12520;DHT22;6325;49.540;8.364;2023-02-28T12:41:55;10.10;90.70
12520;DHT22;6325;49.540;8.364;2023-02-28T12:44:27;9.90;90.00
12520;DHT22;6325;49.540;8.364;2023-02-28T12:46:58;9.60;85.70
12520;DHT22;6325;49.540;8.364;2023-02-28T12:49:30;9.40;87.10
12520;DHT22;6325;49.540;8.364;2023-02-28T12:51:59;9.70;87.40
12520;DHT22;6325;49.540;8.364;2023-02-28T12:54:31;8.60;86.70
12520;DHT22;6325;49.540;8.364;2023-02-28T12:57:09;8.80;88.90
12520;DHT22;6325;49.540;8.364;2023-02-28T12:59:43;8.30;90.00
12520;DHT22;6325;49.540;8.364;2023-02-28T13:05:52;9.90;89.10
12520;DHT22;6325;49.540;8.364;2023-02-28T13:08:53;9.70;86.10
12520;DHT22;6325;49.540;8.364;2023-02-28T13:11:29;10.40;83.90
12520;DHT22;6325;49.540;8.364;2023-02-28T13:13:58;10.30;83.80
12520;DHT22;6325;49.540;8.364;2023-02-28T13:16:26;9.20;83.40
12520;DHT22;6325;49.540;8.364;2023-02-28T13:19:09;9.80;83.80
12520;DHT22;6325;49.540;8.364;2023-02-28T13:21:43;10.10;80.70
12520;DHT22;6325;49.540;8.364;2023-02-28T13:27:36;10.50;80.70
12520;DHT22;6325;49.540;8.364;2023-02-28T13:33:21;10.90;81.00
12520;DHT22;6325;49.540;8.364;2023-02-28T13:36:06;10.90;79.00
12520;DHT22;6325;49.540;8.364;2023-02-28T13:38:36;11.60;76.70
12520;DHT22;6325;49.540;8.364;2023-02-28T13:41:42;11.60;76.40
12520;DHT22;6325;49.540;8.364;2023-02-28T13:44:12;11.30;76.90
12520;DHT22;6325;49.540;8.364;2023-02-28T13:49:44;11.20;75.00
12520;DHT22;6325;49.540;8.364;2023-02-28T13:52:17;11.10;77.40
12520;DHT22;6325;49.540;8.364;2023-02-28T13:57:57;11.00;75.90
12520;DHT22;6325;49.540;8.364;2023-02-28T14:00:41;9.50;78.10
12520;DHT22;6325;49.540;8.364;2023-02-28T14:03:27;8.80;78.80
12520;DHT22;6325;49.540;8.364;2023-02-28T14:06:18;8.30;80.40
12520;DHT22;6325;49.540;8.364;2023-02-28T14:08:54;8.10;83.30
12520;DHT22;6325;49.540;8.364;2023-02-28T14:11:28;7.70;84.50
12520;DHT22;6325;49.540;8.364;2023-02-28T14:13:57;8.00;85.40
12520;DHT22;6325;49.540;8.364;2023-02-28T14:16:27;8.20;86.00
12520;DHT22;6325;49.540;8.364;2023-02-28T14:19:03;7.70;87.60
12520;DHT22;6325;49.540;8.364;2023-02-28T14:21:34;8.30;89.50
12520;DHT22;6325;49.540;8.364;2023-02-28T14:33:14;7.80;88.80
12520;DHT22;6325;49.540;8.364;2023-02-28T14:36:00;8.20;88.60
12520;DHT22;6325;49.540;8.364;2023-02-28T14:38:30;7.40;87.60
12520;DHT22;6325;49.540;8.364;2023-02-28T14:41:04;7.80;88.40
12520;DHT22;6325;49.540;8.364;2023-02-28T14:43:33;7.90;90.10
12520;DHT22;6325;49.540;8.364;2023-02-28T14:46:01;7.90;89.00
12520;DHT22;6325;49.540;8.364;2023-02-28T14:48:30;7.70;88.20
12520;DHT22;6325;49.540;8.364;2023-02-28T14:50:58;8.20;87.60
12520;DHT22;6325;49.540;8.364;2023-02-28T14:53:29;8.10;85.20
12520;DHT22;6325;49.540;8.364;2023-02-28T14:55:56;8.20;86.40
12520;DHT22;6325;49.540;8.364;2023-02-28T14:58:25;7.30;87.10
12520;DHT22;6325;49.540;8.364;2023-02-28T15:00:53;8.10;88.50
12520;DHT22;6325;49.540;8.364;2023-02-28T15:03:23;8.00;86.90
12520;DHT22;6325;49.540;8.364;2023-02-28T15:05:56;7.70;86.60
12520;DHT22;6325;49.540;8.364;2023-02-28T15:08:24;8.70;85.90
12520;DHT22;6325;49.540;8.364;2023-02-28T15:10:54;8.50;85.20
12520;DHT22;6325;49.540;8.364;2023-02-28T15:13:22;9.40;85.60
12520;DHT22;6325;49.540;8.364;2023-02-28T15:15:53;10.20;80.00
12520;DHT22;6325;49.540;8.364;2023-02-28T15:18:30;10.80;77.40
12520;DHT22;6325;49.540;8.364;2023-02-28T15:21:02;11.40;75.60
12520;DHT22;6325;49.540;8.364;2023-02-28T15:23:30;11.50;74.70
12520;DHT22;6325;49.540;8.364;2023-02-28T15:25:58;11.30;74.70
12520;DHT22;6325;49.540;8.364;2023-02-28T15:28:26;11.60;74.50
12520;DHT22;6325;49.540;8.364;2023-02-28T15:30:56;10.80;73.90
12520;DHT22;6325;49.540;8.364;2023-02-28T15:33:25;11.10;73.60
12520;DHT22;6325;49.540;8.364;2023-02-28T15:36:05;10.60;75.10
12520;DHT22;6325;49.540;8.364;2023-02-28T15:38:35;9.70;77.70
12520;DHT22;6325;49.540;8.364;2023-02-28T15:41:02;9.60;79.80
12520;DHT22;6325;49.540;8.364;2023-02-28T15:43:38;9.80;79.90
12520;DHT22;6325;49.540;8.364;2023-02-28T15:46:06;10.90;79.40
12520;DHT22;6325;49.540;8.364;2023-02-28T15:48:37;10.70;77.40
12520;DHT22;6325;49.540;8.364;2023-02-28T15:51:18;11.90;77.60
12520;DHT22;6325;49.540;8.364;2023-02-28T15:53:48;11.50;73.50
12520;DHT22;6325;49.540;8.364;2023-02-28T15:56:23;12.40;73.50
12520;DHT22;6325;49.540;8.364;2023-02-28T15:58:53;12.30;72.50
12520;DHT22;6325;49.540;8.364;2023-02-28T16:01:24;12.50;71.20
12520;DHT22;6325;49.540;8.364;2023-02-28T16:03:54;12.20;70.80
12520;DHT22;6325;49.540;8.364;2023-02-28T16:06:37;12.00;71.10
12520;DHT22;6325;49.540;8.364;2023-02-28T16:09:06;11.60;71.20
12520;DHT22;6325;49.540;8.364;2023-02-28T16:11:38;11.40;71.60
12520;DHT22;6325;49.540;8.364;2023-02-28T16:14:08;11.10;71.70
12520;DHT22;6325;49.540;8.364;2023-02-28T16:16:42;10.70;71.30
12520;DHT22;6325;49.540;8.364;2023-02-28T16:19:10;9.20;72.90
12520;DHT22;6325;49.540;8.364;2023-02-28T16:21:38;9.40;76.60
12520;DHT22;6325;49.540;8.364;2023-02-28T16:24:06;8.30;77.30
12520;DHT22;6325;49.540;8.364;2023-02-28T16:26:33;8.10;79.30
12520;DHT22;6325;49.540;8.364;2023-02-28T16:29:03;8.10;82.10
12520;DHT22;6325;49.540;8.364;2023-02-28T16:31:31;7.50;83.20
12520;DHT22;6325;49.540;8.364;2023-02-28T16:33:58;7.00;84.80
12520;DHT22;6325;49.540;8.364;2023-02-28T16:36:25;7.40;86.30
12520;DHT22;6325;49.540;8.364;2023-02-28T16:38:55;7.10;87.40
12520;DHT22;6325;49.540;8.364;2023-02-28T16:41:24;7.20;88.30
12520;DHT22;6325;49.540;8.364;2023-02-28T16:43:54;6.50;88.60
12520;DHT22;6325;49.540;8.364;2023-02-28T16:46:25;7.20;90.10
12520;DHT22;6325;49.540;8.364;2023-02-28T16:48:53;6.00;90.20
12520;DHT22;6325;49.540;8.364;2023-02-28T16:51:20;6.50;91.10
12520;DHT22;6325;49.540;8.364;2023-02-28T16:53:47;6.40;91.50